Flag for India

Past Weather in New Okhla Industrial Development Authority, Uttar Pradesh, India — Yesterday and Last 2 Weeks

Currently: 55 °F. Fog. (Weather station: New Delhi Palam Airport, India). See more current weather

Past Weather in New Okhla Industrial Development Authority — Graph

°F

New Okhla Industrial Development Authority Temperature Yesterday

Maximum temperature yesterday: 73 °F (at 1:30 pm)
Minimum temperature yesterday: 57 °F (at 4:00 am)
Average temperature yesterday: 64 °F

High & Low Weather Summary for the Past Weeks

 TemperatureHumidityPressure
High79 °F (Nov 21, 2:00 pm)94% (Dec 4, 4:00 am)30.09 "Hg (Dec 4, 4:00 am)
Low54 °F (Nov 24, 6:30 am)21% (Nov 25, 3:30 pm)29.83 "Hg (Nov 27, 4:30 pm)
Average65 °F57%29.97 "Hg
* Reported Nov 20 2:30 am — Dec 5 2:30 am, New Okhla Industrial Development Authority. Weather by CustomWeather, © 2022

Note: Actual official high and low records may vary slightly from our data, if they occured in-between our weather recording intervals... More about our weather records

New Okhla Industrial Development Authority Weather History for the Previous 24 Hours

Scroll right to see more
 ConditionsComfort  
Time TempWeatherWind HumidityBarometerVisibility
2:30 am
Mon, Dec 5
55 °FFog.No wind88%30.01 "Hg1 mi
2:00 am57 °FFog.No wind88%30.01 "Hg1 mi
1:30 am57 °FFog.No wind88%30.01 "Hg1 mi
1:00 am59 °FFog.No wind82%30.01 "Hg1 mi
12:30 am59 °FFog.No wind82%30.01 "Hg1 mi
12:00 am59 °FFog.No wind82%30.01 "Hg1 mi
11:30 pm
Sun, Dec 4
61 °FFog.No wind83%30.01 "Hg1 mi
11:00 pm61 °FFog.No wind83%30.01 "Hg1 mi
10:30 pm63 °FFog.No wind77%30.01 "Hg1 mi
9:30 pm63 °FFog.No wind77%30.01 "Hg1 mi
9:00 pm63 °FFog.No wind77%30.01 "Hg1 mi
8:30 pm63 °FFog.No wind77%30.01 "Hg1 mi
7:30 pm64 °FHaze.No wind68%29.98 "Hg1 mi
6:30 pm68 °FHaze.3 mph56%29.95 "Hg1 mi
6:00 pm70 °FHaze.3 mph53%29.95 "Hg1 mi
5:30 pm70 °FHaze.3 mph53%29.95 "Hg1 mi
4:30 pm72 °FHaze.5 mph50%29.95 "Hg1 mi
4:00 pm73 °FHaze.5 mph47%29.95 "Hg1 mi
3:30 pm73 °FHaze.3 mph47%29.95 "Hg1 mi
3:00 pm73 °FHaze.5 mph47%29.95 "Hg1 mi
2:30 pm73 °FHaze.3 mph47%29.95 "Hg1 mi
2:00 pm73 °FHaze.6 mph47%29.98 "Hg1 mi
1:30 pm73 °FClear.6 mph47%29.98 "Hg1 mi
12:30 pm72 °FClear.5 mph53%30.01 "Hg1 mi
11:30 am70 °FClear.3 mph57%30.04 "Hg1 mi
11:00 am66 °FClear.3 mph68%30.07 "Hg1 mi
10:30 am63 °FFog.3 mph77%30.07 "Hg1 mi
10:00 am61 °FFog.3 mph77%30.07 "Hg1 mi
9:30 am59 °FFog.3 mph82%30.07 "Hg1 mi
9:00 am59 °FFog.3 mph82%30.07 "Hg1 mi
8:30 am57 °FFog.3 mph88%30.04 "Hg1 mi
8:00 am57 °FFog.2 mph94%30.04 "Hg1 mi
7:30 am57 °FFog.3 mph94%30.04 "Hg1 mi
7:00 am57 °FFog.No wind94%30.01 "Hg1 mi
6:30 am57 °FFog.No wind94%30.01 "Hg1 mi
5:00 am57 °FFog.No wind94%30.01 "Hg1 mi
4:30 am57 °FFog.No wind94%30.01 "Hg1 mi
4:00 am57 °FFog.No wind94%30.01 "Hg1 mi
3:30 am59 °FFog.No wind88%30.01 "Hg1 mi
3:00 am61 °FFog.No wind83%30.01 "Hg1 mi
Weather by CustomWeather, © 2022

See weather overview